createdAt,value
2023-03-10T00:00:22.937Z,5.90
2023-03-10T00:02:50.189Z,5.95
2023-03-10T00:05:19.614Z,4.10
2023-03-10T00:07:47.568Z,5.03
2023-03-10T00:10:15.362Z,7.93
2023-03-10T00:12:42.447Z,4.05
2023-03-10T00:15:09.715Z,4.82
2023-03-10T00:17:36.856Z,4.47
2023-03-10T00:20:07.802Z,2.80
2023-03-10T00:22:35.216Z,4.45
2023-03-10T00:25:01.822Z,3.72
2023-03-10T00:27:28.417Z,5.65
2023-03-10T00:29:54.920Z,4.82
2023-03-10T00:32:21.510Z,3.50
2023-03-10T00:34:48.067Z,7.05
2023-03-10T00:37:14.579Z,4.60
2023-03-10T00:39:41.984Z,3.63
2023-03-10T00:42:09.519Z,6.72
2023-03-10T00:44:36.148Z,2.97
2023-03-10T00:47:02.886Z,3.75
2023-03-10T00:49:29.418Z,4.47
2023-03-10T00:51:55.950Z,4.88
2023-03-10T00:54:22.639Z,4.03
2023-03-10T00:56:49.219Z,4.38
2023-03-10T00:59:15.764Z,7.25
2023-03-10T01:01:42.752Z,7.63
2023-03-10T01:04:13.463Z,3.22
2023-03-10T01:06:40.666Z,5.97
2023-03-10T01:09:07.352Z,5.97
2023-03-10T01:11:34.748Z,6.20
2023-03-10T01:14:04.645Z,11.85
2023-03-10T01:16:31.595Z,4.28
2023-03-10T01:18:58.942Z,8.40
2023-03-10T01:21:31.117Z,5.93
2023-03-10T01:23:58.689Z,2.63
2023-03-10T01:26:25.330Z,6.53
2023-03-10T01:28:51.903Z,7.28
2023-03-10T01:31:19.149Z,3.85
2023-03-10T01:33:46.099Z,5.75
2023-03-10T01:36:18.617Z,7.20
2023-03-10T01:38:45.283Z,2.50
2023-03-10T01:41:12.284Z,8.55
2023-03-10T01:43:40.724Z,4.43
2023-03-10T01:46:31.673Z,6.50
2023-03-10T01:49:03.040Z,4.75
2023-03-10T01:51:34.440Z,3.38
2023-03-10T01:54:05.503Z,6.65
2023-03-10T01:58:58.656Z,1.20
2023-03-10T02:01:25.727Z,2.55
2023-03-10T02:04:15.143Z,5.60
2023-03-10T02:06:43.951Z,0.65
2023-03-10T02:09:10.945Z,0.43
2023-03-10T02:11:38.106Z,2.17
2023-03-10T02:14:06.224Z,2.45
2023-03-10T02:16:34.318Z,1.02
2023-03-10T02:19:01.532Z,1.20
2023-03-10T02:21:51.858Z,0.85
2023-03-10T02:24:43.177Z,0.40
2023-03-10T02:29:59.144Z,2.00
2023-03-10T02:32:29.207Z,2.08
2023-03-10T02:34:56.078Z,2.13
2023-03-10T02:37:30.394Z,1.08
2023-03-10T02:39:57.973Z,0.77
2023-03-10T02:42:29.773Z,1.08
2023-03-10T02:44:56.950Z,2.17
2023-03-10T02:47:23.607Z,0.77
2023-03-10T02:49:50.190Z,0.88
2023-03-10T02:52:26.700Z,2.92
2023-03-10T02:54:53.312Z,0.73
2023-03-10T02:57:19.901Z,1.80
2023-03-10T02:59:46.452Z,0.88
2023-03-10T03:02:12.986Z,1.55
2023-03-10T03:04:39.571Z,0.77
2023-03-10T03:07:06.151Z,1.10
2023-03-10T03:09:32.848Z,1.40
2023-03-10T03:12:00.006Z,1.02
2023-03-10T03:14:26.600Z,1.17
2023-03-10T03:16:53.194Z,0.68
2023-03-10T03:19:19.928Z,0.63
2023-03-10T03:21:49.783Z,1.85
2023-03-10T03:24:23.099Z,1.00
2023-03-10T03:26:49.632Z,1.33
2023-03-10T03:29:17.403Z,1.73
2023-03-10T03:31:44.211Z,1.08
2023-03-10T03:34:11.325Z,0.80
2023-03-10T03:36:38.101Z,2.33
2023-03-10T03:39:06.566Z,3.60
2023-03-10T03:41:33.858Z,2.60
2023-03-10T03:44:00.836Z,1.42
2023-03-10T03:46:27.634Z,0.77
2023-03-10T03:48:54.182Z,0.93
2023-03-10T03:51:20.692Z,0.98
2023-03-10T03:53:47.249Z,2.67
2023-03-10T03:56:13.875Z,1.48
2023-03-10T03:58:40.417Z,1.23
2023-03-10T04:01:06.974Z,1.75
2023-03-10T04:03:33.624Z,1.42
2023-03-10T04:06:00.342Z,0.55
2023-03-10T04:08:27.066Z,0.85
2023-03-10T04:10:55.060Z,3.33
2023-03-10T04:13:21.845Z,0.52
2023-03-10T04:15:48.413Z,0.47
2023-03-10T04:18:15.756Z,0.90
2023-03-10T04:20:42.334Z,0.30
2023-03-10T04:23:08.890Z,0.50
2023-03-10T04:25:36.214Z,0.40
2023-03-10T04:28:02.737Z,1.55
2023-03-10T04:30:29.667Z,0.73
2023-03-10T04:33:00.573Z,0.50
2023-03-10T04:35:27.959Z,0.68
2023-03-10T04:37:54.773Z,1.30
2023-03-10T04:40:21.701Z,0.43
2023-03-10T04:42:48.341Z,0.40
2023-03-10T04:45:15.100Z,0.40
2023-03-10T04:47:44.783Z,1.50
2023-03-10T04:50:12.448Z,0.80
2023-03-10T04:52:39.156Z,1.17
2023-03-10T04:55:06.280Z,0.32
2023-03-10T04:57:32.848Z,1.42
2023-03-10T05:00:02.286Z,0.57
2023-03-10T05:02:29.408Z,0.30
2023-03-10T05:04:56.734Z,0.93
2023-03-10T05:07:23.564Z,0.38
2023-03-10T05:09:50.115Z,0.32
2023-03-10T05:12:16.694Z,0.50
2023-03-10T05:14:43.232Z,0.70
2023-03-10T05:17:10.038Z,0.57
2023-03-10T05:19:36.614Z,1.85
2023-03-10T05:22:04.362Z,0.50
2023-03-10T05:24:31.360Z,1.38
2023-03-10T05:26:58.338Z,1.35
2023-03-10T05:29:24.924Z,2.03
2023-03-10T05:31:51.495Z,1.20
2023-03-10T05:34:18.130Z,1.52
2023-03-10T05:36:44.687Z,1.05
2023-03-10T05:39:11.401Z,3.58
2023-03-10T05:41:38.937Z,1.05
2023-03-10T05:44:06.064Z,2.08
2023-03-10T05:46:32.617Z,1.42
2023-03-10T05:48:59.276Z,1.10
2023-03-10T05:51:25.804Z,0.80
2023-03-10T05:53:52.324Z,0.77
2023-03-10T05:56:19.743Z,0.70
2023-03-10T05:58:47.370Z,0.95
2023-03-10T06:01:14.453Z,0.73
2023-03-10T06:03:41.354Z,1.52
2023-03-10T06:06:08.186Z,1.02
2023-03-10T06:08:35.118Z,2.47
2023-03-10T06:11:01.754Z,2.35
2023-03-10T06:13:28.483Z,1.65
2023-03-10T06:15:59.701Z,1.85
2023-03-10T06:18:27.912Z,2.15
2023-03-10T06:20:55.290Z,1.58
2023-03-10T06:23:23.474Z,1.60
2023-03-10T06:26:06.652Z,2.88
2023-03-10T06:28:36.474Z,2.13
2023-03-10T06:31:06.363Z,1.17
2023-03-10T06:33:33.894Z,2.78
2023-03-10T06:36:00.845Z,1.10
2023-03-10T06:38:27.654Z,0.98
2023-03-10T06:40:54.334Z,1.20
2023-03-10T06:43:20.891Z,4.15
2023-03-10T06:45:49.189Z,2.95
2023-03-10T06:48:16.354Z,0.82
2023-03-10T06:50:49.761Z,2.88
2023-03-10T06:53:20.900Z,1.63
2023-03-10T06:58:24.460Z,3.28
2023-03-10T07:00:51.018Z,1.90
2023-03-10T07:03:18.397Z,3.22
2023-03-10T07:05:44.958Z,7.00
2023-03-10T07:08:11.534Z,3.90
2023-03-10T07:10:38.075Z,5.70
2023-03-10T07:13:04.674Z,1.63
2023-03-10T07:15:31.207Z,1.17
2023-03-10T07:17:57.783Z,0.52
2023-03-10T07:20:24.926Z,0.88
2023-03-10T07:22:51.901Z,0.73
2023-03-10T07:25:18.825Z,1.95
2023-03-10T07:27:45.411Z,2.08
2023-03-10T07:30:12.509Z,1.85
2023-03-10T07:32:39.120Z,3.95
2023-03-10T07:35:06.315Z,1.88
2023-03-10T07:37:32.900Z,1.45
2023-03-10T07:39:59.418Z,4.53
2023-03-10T07:42:25.970Z,1.85
2023-03-10T07:44:52.609Z,1.92
2023-03-10T07:47:19.190Z,1.25
2023-03-10T07:49:46.807Z,2.15
2023-03-10T07:52:16.727Z,2.33
2023-03-10T07:54:44.343Z,0.95
2023-03-10T07:57:12.351Z,2.13
2023-03-10T07:59:39.201Z,1.20
2023-03-10T08:02:06.132Z,0.70
2023-03-10T08:04:32.793Z,2.42
2023-03-10T08:07:02.116Z,1.17
2023-03-10T08:09:32.511Z,1.38
2023-03-10T08:11:59.674Z,1.13
2023-03-10T08:14:29.438Z,0.50
2023-03-10T08:16:56.664Z,0.73
2023-03-10T08:19:27.571Z,2.67
2023-03-10T08:21:55.646Z,0.50
2023-03-10T08:24:22.279Z,2.00
2023-03-10T08:26:48.823Z,0.30
2023-03-10T08:29:15.586Z,0.63
2023-03-10T08:31:42.174Z,5.13
2023-03-10T08:34:08.772Z,2.10
2023-03-10T08:36:35.454Z,3.67
2023-03-10T08:39:02.457Z,1.52
2023-03-10T08:41:37.763Z,1.02
2023-03-10T08:44:05.703Z,0.40
2023-03-10T08:46:33.455Z,0.80
2023-03-10T08:49:00.675Z,1.80
2023-03-10T08:51:28.873Z,1.20
2023-03-10T08:53:55.586Z,1.70
2023-03-10T08:56:23.353Z,2.13
2023-03-10T08:58:50.502Z,2.13
2023-03-10T09:01:17.813Z,1.85
2023-03-10T09:03:45.795Z,2.50
2023-03-10T09:06:13.541Z,2.53
2023-03-10T09:08:41.159Z,2.72
2023-03-10T09:11:09.477Z,2.17
2023-03-10T09:13:35.972Z,1.88
2023-03-10T09:16:02.659Z,3.05
2023-03-10T09:18:29.331Z,2.85
2023-03-10T09:20:55.976Z,6.60
2023-03-10T09:23:22.535Z,4.85
2023-03-10T09:25:49.087Z,3.10
2023-03-10T09:28:18.510Z,3.42
2023-03-10T09:30:45.393Z,3.28
2023-03-10T09:33:17.732Z,4.68
2023-03-10T09:35:52.446Z,1.77
2023-03-10T09:38:25.687Z,1.50
2023-03-10T09:41:13.764Z,3.58
2023-03-10T09:43:50.284Z,2.10
2023-03-10T09:46:25.645Z,4.15
2023-03-10T09:49:01.305Z,2.08
2023-03-10T09:51:28.789Z,6.38
2023-03-10T09:54:24.139Z,2.25
2023-03-10T09:56:51.024Z,1.73
2023-03-10T09:59:25.229Z,3.42
2023-03-10T10:01:53.078Z,2.55
2023-03-10T10:04:29.534Z,1.95
2023-03-10T10:06:57.216Z,3.13
2023-03-10T10:09:32.710Z,4.35
2023-03-10T10:12:13.784Z,1.95
2023-03-10T10:14:48.139Z,3.90
2023-03-10T10:17:41.721Z,2.53
2023-03-10T10:20:22.860Z,2.15
2023-03-10T10:22:49.642Z,2.25
2023-03-10T10:25:20.462Z,4.38
2023-03-10T10:27:51.528Z,1.90
2023-03-10T10:33:16.347Z,0.70
2023-03-10T10:36:01.784Z,1.48
2023-03-10T10:38:30.720Z,2.97
2023-03-10T10:41:05.074Z,2.97
2023-03-10T10:43:44.212Z,2.00
2023-03-10T10:46:13.179Z,1.48
2023-03-10T10:48:46.090Z,1.20
2023-03-10T10:51:35.712Z,2.13
2023-03-10T10:54:21.556Z,1.00
2023-03-10T10:56:53.625Z,0.95
2023-03-10T10:59:22.817Z,0.63
2023-03-10T11:01:53.870Z,1.25
2023-03-10T11:06:48.181Z,0.82
2023-03-10T11:09:20.450Z,0.30
2023-03-10T11:12:00.797Z,0.40
2023-03-10T11:14:46.414Z,0.30
2023-03-10T11:17:28.413Z,0.63
2023-03-10T11:19:57.602Z,0.20
2023-03-10T11:22:32.842Z,0.70
2023-03-10T11:25:11.329Z,0.70
2023-03-10T11:27:51.841Z,0.50
2023-03-10T11:30:40.967Z,1.65
2023-03-10T11:34:01.499Z,0.40
2023-03-10T11:36:43.237Z,0.70
2023-03-10T11:39:24.979Z,0.60
2023-03-10T11:42:02.444Z,2.08
2023-03-10T11:44:38.881Z,1.05
2023-03-10T11:47:41.759Z,0.65
2023-03-10T11:50:49.156Z,1.20
2023-03-10T11:53:25.912Z,2.63
2023-03-10T11:55:53.837Z,1.95
2023-03-10T11:58:47.026Z,0.40
2023-03-10T12:01:23.037Z,0.30
2023-03-10T12:04:06.429Z,1.25
2023-03-10T12:06:41.954Z,0.30
2023-03-10T12:09:18.569Z,0.40
2023-03-10T12:11:46.063Z,0.32
2023-03-10T12:14:14.204Z,0.50
2023-03-10T12:16:41.911Z,0.32
2023-03-10T12:19:08.647Z,0.25
2023-03-10T12:21:35.958Z,0.43
2023-03-10T12:24:04.561Z,2.67
2023-03-10T12:26:40.767Z,0.68
2023-03-10T12:29:22.474Z,0.25
2023-03-10T12:31:51.515Z,1.77
2023-03-10T12:34:28.544Z,0.20
2023-03-10T12:37:05.527Z,0.20
2023-03-10T12:39:42.503Z,1.83
2023-03-10T12:42:30.164Z,0.43
2023-03-10T12:45:21.160Z,5.28
2023-03-10T12:48:01.737Z,0.57
2023-03-10T12:50:50.172Z,0.77
2023-03-10T12:53:34.222Z,0.85
2023-03-10T12:56:12.910Z,0.65
2023-03-10T12:58:44.967Z,1.55
2023-03-10T13:01:17.095Z,0.85
2023-03-10T13:03:50.868Z,0.45
2023-03-10T13:06:29.439Z,0.73
2023-03-10T13:08:59.124Z,0.80
2023-03-10T13:12:03.742Z,0.32
2023-03-10T13:14:42.118Z,0.30
2023-03-10T13:17:25.396Z,2.35
2023-03-10T13:20:05.641Z,0.30
2023-03-10T13:22:33.084Z,0.40
2023-03-10T13:25:02.856Z,0.65
2023-03-10T13:27:32.511Z,0.85
2023-03-10T13:30:12.970Z,0.40
2023-03-10T13:32:39.626Z,1.00
2023-03-10T13:35:24.784Z,1.30
2023-03-10T13:38:20.515Z,0.25
2023-03-10T13:40:49.725Z,0.52
2023-03-10T13:43:39.186Z,0.82
2023-03-10T13:46:27.614Z,0.70
2023-03-10T13:48:57.899Z,0.22
2023-03-10T13:51:31.783Z,0.10
2023-03-10T13:54:11.738Z,0.25
2023-03-10T13:56:40.641Z,0.70
2023-03-10T13:59:14.944Z,0.30
2023-03-10T14:01:50.975Z,0.30
2023-03-10T14:04:38.005Z,0.90
2023-03-10T14:07:14.615Z,0.55
2023-03-10T14:09:41.339Z,0.10
2023-03-10T14:12:09.013Z,2.05
2023-03-10T14:14:38.617Z,1.95
2023-03-10T14:17:07.909Z,0.98
2023-03-10T14:19:43.713Z,1.95
2023-03-10T14:22:35.582Z,0.73
2023-03-10T14:25:05.984Z,0.38
2023-03-10T14:27:35.858Z,0.98
2023-03-10T14:30:21.264Z,0.40
2023-03-10T14:32:48.260Z,0.43
2023-03-10T14:35:17.478Z,0.35
2023-03-10T14:37:44.073Z,1.13
2023-03-10T14:40:11.229Z,0.90
2023-03-10T14:42:40.241Z,1.10
2023-03-10T14:45:27.482Z,1.05
2023-03-10T14:47:56.666Z,1.52
2023-03-10T14:50:24.652Z,2.35
2023-03-10T14:52:52.462Z,5.55
2023-03-10T14:55:19.299Z,2.63
2023-03-10T14:57:47.849Z,2.58
2023-03-10T15:00:18.512Z,2.53
2023-03-10T15:02:46.136Z,2.30
2023-03-10T15:05:21.727Z,4.47
2023-03-10T15:07:48.795Z,3.83
2023-03-10T15:10:19.929Z,2.35
2023-03-10T15:15:17.873Z,7.43
2023-03-10T15:17:44.958Z,6.07
2023-03-10T15:20:16.357Z,4.22
2023-03-10T15:22:44.573Z,7.07
2023-03-10T15:25:11.610Z,3.65
2023-03-10T15:27:38.335Z,7.57
2023-03-10T15:30:06.911Z,8.82
2023-03-10T15:32:33.518Z,6.88
2023-03-10T15:35:00.153Z,7.32
2023-03-10T15:37:26.755Z,9.30
2023-03-10T15:39:53.268Z,7.63
2023-03-10T15:42:19.777Z,13.70
2023-03-10T15:44:49.226Z,5.10
2023-03-10T15:47:15.745Z,10.25
2023-03-10T15:49:42.323Z,9.98
2023-03-10T15:52:08.996Z,11.95
2023-03-10T15:54:35.552Z,10.27
2023-03-10T15:57:02.146Z,14.05
2023-03-10T15:59:29.304Z,16.02
2023-03-10T16:01:56.122Z,12.20
2023-03-10T16:04:23.584Z,12.57
2023-03-10T16:06:50.159Z,10.68
2023-03-10T16:09:16.921Z,8.20
2023-03-10T16:11:43.494Z,13.10
2023-03-10T16:14:10.146Z,14.05
2023-03-10T16:16:36.776Z,8.63
2023-03-10T16:19:03.391Z,15.20
2023-03-10T16:21:30.029Z,13.27
2023-03-10T16:23:57.434Z,14.43
2023-03-10T16:26:24.492Z,14.50
2023-03-10T16:28:53.125Z,16.88
2023-03-10T16:31:24.288Z,17.35
2023-03-10T16:33:53.746Z,12.25
2023-03-10T16:36:23.633Z,15.60
2023-03-10T16:38:50.413Z,13.90
2023-03-10T16:41:17.481Z,13.10
2023-03-10T16:43:44.173Z,12.73
2023-03-10T16:46:15.675Z,11.07
2023-03-10T16:48:44.535Z,20.42
2023-03-10T16:51:32.860Z,15.15
2023-03-10T16:54:02.310Z,15.23
2023-03-10T16:56:31.776Z,14.70
2023-03-10T16:58:58.669Z,14.95
2023-03-10T17:01:25.376Z,15.48
2023-03-10T17:03:53.144Z,14.93
2023-03-10T17:06:23.236Z,15.93
2023-03-10T17:08:51.206Z,23.77
2023-03-10T17:11:24.527Z,13.02
2023-03-10T17:13:53.840Z,12.15
2023-03-10T17:16:23.352Z,15.80
2023-03-10T17:18:50.742Z,14.27
2023-03-10T17:21:22.612Z,22.00
2023-03-10T17:23:49.775Z,22.42
2023-03-10T17:26:17.825Z,17.23
2023-03-10T17:28:50.414Z,17.70
2023-03-10T17:31:26.106Z,9.35
2023-03-10T17:33:58.683Z,18.60
2023-03-10T17:36:25.368Z,15.77
2023-03-10T17:38:53.463Z,16.17
2023-03-10T17:41:20.404Z,14.98
2023-03-10T17:43:47.980Z,15.85
2023-03-10T17:46:16.733Z,13.25
2023-03-10T17:48:43.797Z,15.70
2023-03-10T17:51:13.906Z,18.40
2023-03-10T17:53:40.434Z,16.17
2023-03-10T17:56:07.784Z,14.57
2023-03-10T17:58:34.859Z,11.82
2023-03-10T18:01:15.783Z,15.55
2023-03-10T18:03:42.674Z,11.65
2023-03-10T18:06:14.501Z,14.88
2023-03-10T18:08:41.616Z,14.93
2023-03-10T18:11:08.486Z,14.02
2023-03-10T18:13:35.804Z,13.75
2023-03-10T18:16:02.477Z,15.18
2023-03-10T18:18:29.077Z,12.95
2023-03-10T18:20:55.651Z,9.43
2023-03-10T18:23:23.124Z,11.90
2023-03-10T18:25:50.742Z,20.50
2023-03-10T18:28:19.160Z,17.88
2023-03-10T18:30:49.944Z,10.95
2023-03-10T18:33:16.612Z,10.63
2023-03-10T18:35:44.949Z,9.68
2023-03-10T18:38:13.208Z,14.77
2023-03-10T18:40:40.343Z,13.00
2023-03-10T18:43:06.950Z,12.07
2023-03-10T18:45:33.541Z,8.15
2023-03-10T18:48:00.263Z,9.60
2023-03-10T18:50:26.945Z,10.65
2023-03-10T18:52:53.485Z,12.90
2023-03-10T18:55:20.020Z,12.18
2023-03-10T18:57:46.605Z,8.93
2023-03-10T19:00:15.283Z,9.45
2023-03-10T19:02:42.684Z,7.40
2023-03-10T19:05:16.362Z,10.68
2023-03-10T19:07:42.913Z,7.20
2023-03-10T19:10:13.795Z,7.90
2023-03-10T19:12:40.972Z,12.80
2023-03-10T19:15:09.133Z,10.27
2023-03-10T19:17:37.458Z,8.82
2023-03-10T19:20:07.267Z,10.25
2023-03-10T19:22:34.797Z,9.65
2023-03-10T19:25:03.303Z,8.95
2023-03-10T19:27:30.589Z,8.68
2023-03-10T19:29:57.633Z,6.20
2023-03-10T19:32:25.442Z,11.25
2023-03-10T19:34:52.117Z,7.80
2023-03-10T19:37:18.914Z,9.02
2023-03-10T19:39:45.453Z,7.55
2023-03-10T19:42:11.993Z,8.32
2023-03-10T19:44:39.320Z,7.53
2023-03-10T19:47:05.985Z,11.25
2023-03-10T19:49:35.388Z,11.73
2023-03-10T19:52:02.052Z,26.77
2023-03-10T19:54:28.664Z,8.23
2023-03-10T19:56:55.193Z,7.60
2023-03-10T19:59:21.773Z,12.07
2023-03-10T20:01:49.229Z,5.18
2023-03-10T20:04:16.054Z,7.00
2023-03-10T20:06:42.671Z,6.72
2023-03-10T20:09:10.663Z,5.25
2023-03-10T20:11:38.728Z,9.38
2023-03-10T20:14:05.856Z,9.88
2023-03-10T20:16:32.897Z,10.93
2023-03-10T20:18:59.784Z,10.95
2023-03-10T20:21:27.479Z,8.88
2023-03-10T20:23:55.935Z,7.72
2023-03-10T20:26:23.846Z,5.15
2023-03-10T20:28:52.083Z,5.72
2023-03-10T20:31:21.832Z,7.40
2023-03-10T20:33:48.841Z,6.63
2023-03-10T20:36:16.095Z,13.13
2023-03-10T20:38:44.078Z,8.77
2023-03-10T20:41:15.960Z,6.65
2023-03-10T20:43:43.568Z,4.40
2023-03-10T20:46:10.891Z,6.97
2023-03-10T20:48:37.549Z,6.15
2023-03-10T20:51:04.338Z,5.20
2023-03-10T20:53:33.287Z,6.78
2023-03-10T20:56:00.466Z,6.25
2023-03-10T20:58:27.614Z,6.25
2023-03-10T21:00:54.447Z,7.13
2023-03-10T21:03:23.897Z,6.65
2023-03-10T21:05:50.524Z,8.82
2023-03-10T21:08:17.056Z,6.82
2023-03-10T21:10:44.842Z,5.78
2023-03-10T21:13:11.962Z,7.43
2023-03-10T21:15:39.730Z,8.10
2023-03-10T21:18:06.666Z,7.07
2023-03-10T21:20:33.418Z,8.15
2023-03-10T21:23:00.333Z,3.85
2023-03-10T21:25:28.161Z,8.38
2023-03-10T21:27:58.609Z,3.97
2023-03-10T21:30:30.223Z,3.53
2023-03-10T21:32:57.840Z,4.47
2023-03-10T21:35:26.624Z,6.78
2023-03-10T21:37:55.294Z,5.50
2023-03-10T21:40:24.035Z,6.88
2023-03-10T21:42:50.914Z,6.10
2023-03-10T21:45:22.446Z,4.88
2023-03-10T21:47:49.002Z,5.38
2023-03-10T21:50:17.079Z,4.88
2023-03-10T21:52:43.922Z,4.60
2023-03-10T21:55:18.435Z,3.63
2023-03-10T21:57:45.049Z,5.03
2023-03-10T22:00:12.724Z,3.13
2023-03-10T22:02:39.722Z,2.20
2023-03-10T22:05:06.900Z,6.28
2023-03-10T22:07:33.601Z,4.00
2023-03-10T22:10:00.303Z,4.32
2023-03-10T22:12:26.898Z,6.63
2023-03-10T22:14:56.257Z,5.68
2023-03-10T22:17:24.538Z,3.10
2023-03-10T22:19:54.520Z,6.10
2023-03-10T22:22:22.315Z,4.50
2023-03-10T22:24:49.159Z,4.93
2023-03-10T22:27:16.408Z,5.43
2023-03-10T22:29:42.982Z,4.95
2023-03-10T22:32:09.525Z,4.50
2023-03-10T22:34:36.149Z,11.38
2023-03-10T22:37:02.725Z,5.85
2023-03-10T22:39:29.286Z,2.70
2023-03-10T22:41:55.879Z,2.92
2023-03-10T22:44:22.789Z,3.20
2023-03-10T22:46:49.474Z,4.82
2023-03-10T22:49:16.111Z,3.08
2023-03-10T22:51:42.663Z,3.50
2023-03-10T22:54:09.277Z,2.92
2023-03-10T22:56:36.006Z,4.55
2023-03-10T22:59:04.308Z,4.78
2023-03-10T23:01:30.947Z,3.13
2023-03-10T23:03:57.747Z,4.57
2023-03-10T23:06:28.515Z,5.57
2023-03-10T23:08:56.481Z,2.65
2023-03-10T23:11:23.481Z,3.92
2023-03-10T23:13:50.276Z,3.47
2023-03-10T23:16:18.003Z,9.05
2023-03-10T23:18:44.617Z,3.35
2023-03-10T23:21:11.176Z,4.30
2023-03-10T23:23:39.132Z,3.83
2023-03-10T23:26:05.967Z,5.22
2023-03-10T23:28:32.500Z,3.83
2023-03-10T23:31:00.341Z,4.10
2023-03-10T23:33:26.862Z,2.40
2023-03-10T23:35:54.112Z,3.88
2023-03-10T23:38:23.278Z,4.78
2023-03-10T23:40:50.801Z,3.85
2023-03-10T23:43:17.337Z,2.90
2023-03-10T23:45:44.375Z,2.60
2023-03-10T23:48:15.991Z,2.92
2023-03-10T23:50:44.100Z,3.78
2023-03-10T23:53:12.850Z,4.10
2023-03-10T23:55:42.333Z,3.22
2023-03-10T23:58:09.354Z,6.13
